createdAt,value
2018-11-13T00:00:08.899Z,0.00
2018-11-13T00:01:09.330Z,0.00
2018-11-13T00:02:09.101Z,0.00
2018-11-13T00:03:09.084Z,0.00
2018-11-13T00:04:09.075Z,0.00
2018-11-13T00:05:09.118Z,0.00
2018-11-13T00:06:09.162Z,0.00
2018-11-13T00:07:09.226Z,0.00
2018-11-13T00:08:09.272Z,0.00
2018-11-13T00:09:09.292Z,0.00
2018-11-13T00:10:09.337Z,0.00
2018-11-13T00:11:09.386Z,0.00
2018-11-13T00:12:09.424Z,0.00
2018-11-13T00:13:09.491Z,0.00
2018-11-13T00:14:09.541Z,0.00
2018-11-13T00:15:09.559Z,0.00
2018-11-13T00:16:09.602Z,0.00
2018-11-13T00:17:09.643Z,0.00
2018-11-13T00:18:09.713Z,0.00
2018-11-13T00:19:09.763Z,0.00
2018-11-13T00:20:09.786Z,0.00
2018-11-13T00:21:09.822Z,0.00
2018-11-13T00:22:09.879Z,0.00
2018-11-13T00:23:09.909Z,0.00
2018-11-13T00:24:10.133Z,0.00
2018-11-13T00:25:09.994Z,0.00
2018-11-13T00:26:10.061Z,0.00
2018-11-13T00:27:10.089Z,0.00
2018-11-13T00:28:10.157Z,0.00
2018-11-13T00:29:10.169Z,0.00
2018-11-13T00:30:10.215Z,0.00
2018-11-13T00:31:10.259Z,0.00
2018-11-13T00:32:10.305Z,0.00
2018-11-13T00:33:10.363Z,0.00
2018-11-13T00:34:10.424Z,0.00
2018-11-13T00:35:10.460Z,0.00
2018-11-13T00:36:10.480Z,0.00
2018-11-13T00:37:10.522Z,0.00
2018-11-13T00:38:10.588Z,0.00
2018-11-13T00:39:10.643Z,0.00
2018-11-13T00:40:10.674Z,0.00
2018-11-13T00:41:10.746Z,0.00
2018-11-13T00:42:10.738Z,0.00
2018-11-13T00:43:10.787Z,0.00
2018-11-13T00:44:10.828Z,0.00
2018-11-13T00:45:10.907Z,0.00
2018-11-13T00:46:10.920Z,0.00
2018-11-13T00:47:10.962Z,0.00
2018-11-13T00:48:11.050Z,0.00
2018-11-13T00:49:11.063Z,0.00
2018-11-13T00:50:11.111Z,0.00
2018-11-13T00:51:11.140Z,0.00
2018-11-13T00:52:11.183Z,0.00
2018-11-13T00:53:11.224Z,0.00
2018-11-13T00:54:11.276Z,0.00
2018-11-13T00:55:11.334Z,0.00
2018-11-13T00:56:11.348Z,0.00
2018-11-13T00:57:11.393Z,0.00
2018-11-13T00:58:11.437Z,0.00
2018-11-13T00:59:11.492Z,0.00
2018-11-13T01:00:11.577Z,0.00
2018-11-13T01:01:11.571Z,0.00
2018-11-13T01:02:11.630Z,0.00
2018-11-13T01:03:11.658Z,0.00
2018-11-13T01:04:11.715Z,0.00
2018-11-13T01:05:11.783Z,0.00
2018-11-13T01:06:11.808Z,0.00
2018-11-13T01:07:11.835Z,0.00
2018-11-13T01:08:11.881Z,0.00
2018-11-13T01:09:11.923Z,0.00
2018-11-13T01:10:11.959Z,0.00
2018-11-13T01:11:12.122Z,0.00
2018-11-13T01:12:12.046Z,0.00
2018-11-13T01:13:12.099Z,0.00
2018-11-13T01:14:12.136Z,0.00
2018-11-13T01:15:12.179Z,0.00
2018-11-13T01:16:12.247Z,0.00
2018-11-13T01:17:12.267Z,0.00
2018-11-13T01:18:12.471Z,0.00
2018-11-13T01:19:12.352Z,0.00
2018-11-13T01:20:12.394Z,0.00
2018-11-13T01:21:12.441Z,0.00
2018-11-13T01:22:12.495Z,0.00
2018-11-13T01:23:12.547Z,0.00
2018-11-13T01:24:12.574Z,0.00
2018-11-13T01:25:12.613Z,0.00
2018-11-13T01:26:12.662Z,0.00
2018-11-13T01:27:12.734Z,0.00
2018-11-13T01:28:12.763Z,0.00
2018-11-13T01:29:12.787Z,0.00
2018-11-13T01:30:12.857Z,0.00
2018-11-13T01:31:12.885Z,0.00
2018-11-13T01:32:12.924Z,0.00
2018-11-13T01:33:12.975Z,0.00
2018-11-13T01:34:13.004Z,0.00
2018-11-13T01:35:13.068Z,0.00
2018-11-13T01:36:13.087Z,0.00
2018-11-13T01:37:13.142Z,0.00
2018-11-13T01:38:13.202Z,0.00
2018-11-13T01:39:13.218Z,0.00
2018-11-13T01:40:13.261Z,0.00
2018-11-13T01:41:13.307Z,0.00
2018-11-13T01:42:13.359Z,0.00
2018-11-13T01:43:13.461Z,0.00
2018-11-13T01:44:13.437Z,0.00
2018-11-13T01:45:13.479Z,0.00
2018-11-13T01:46:13.521Z,0.00
2018-11-13T01:47:13.567Z,0.00
2018-11-13T01:48:13.633Z,0.00
2018-11-13T01:49:13.658Z,0.00
2018-11-13T01:50:13.769Z,0.00
2018-11-13T01:51:13.739Z,0.00
2018-11-13T01:52:13.782Z,0.00
2018-11-13T01:53:13.858Z,0.00
2018-11-13T01:54:13.876Z,0.00
2018-11-13T01:55:13.912Z,0.00
2018-11-13T01:56:13.953Z,0.00
2018-11-13T01:57:14.345Z,0.00
2018-11-13T01:58:14.059Z,0.00
2018-11-13T01:59:14.085Z,0.00
2018-11-13T02:00:14.126Z,0.00
2018-11-13T02:01:14.175Z,0.00
2018-11-13T02:02:14.212Z,0.00
2018-11-13T02:03:14.277Z,0.00
2018-11-13T02:04:14.303Z,0.00
2018-11-13T02:05:14.366Z,0.00
2018-11-13T02:06:14.387Z,0.00
2018-11-13T02:07:14.435Z,0.00
2018-11-13T02:08:14.476Z,0.00
2018-11-13T02:09:14.517Z,0.00
2018-11-13T02:10:14.589Z,0.00
2018-11-13T02:11:14.601Z,0.00
2018-11-13T02:12:14.652Z,0.00
2018-11-13T02:13:14.691Z,0.00
2018-11-13T02:14:14.738Z,0.00
2018-11-13T02:15:14.813Z,0.00
2018-11-13T02:16:14.823Z,0.00
2018-11-13T02:17:14.862Z,0.00
2018-11-13T02:18:14.906Z,0.00
2018-11-13T02:19:14.953Z,0.00
2018-11-13T02:20:15.055Z,0.00
2018-11-13T02:21:15.037Z,0.00
2018-11-13T02:22:15.081Z,0.00
2018-11-13T02:23:15.124Z,0.00
2018-11-13T02:24:15.168Z,0.00
2018-11-13T02:25:15.227Z,0.00
2018-11-13T02:26:15.273Z,0.00
2018-11-13T02:27:15.297Z,0.00
2018-11-13T02:28:15.343Z,0.00
2018-11-13T02:29:15.386Z,0.00
2018-11-13T02:30:15.424Z,0.00
2018-11-13T02:31:15.495Z,0.00
2018-11-13T02:32:15.524Z,0.00
2018-11-13T02:33:15.566Z,0.00
2018-11-13T02:34:15.606Z,0.00
2018-11-13T02:35:15.690Z,0.00
2018-11-13T02:36:15.708Z,0.00
2018-11-13T02:37:15.758Z,0.00
2018-11-13T02:38:15.773Z,0.00
2018-11-13T02:39:15.819Z,0.00
2018-11-13T02:40:15.861Z,0.00
2018-11-13T02:41:15.909Z,0.00
2018-11-13T02:42:15.977Z,0.00
2018-11-13T02:43:15.994Z,0.00
2018-11-13T02:44:16.041Z,0.00
2018-11-13T02:45:16.097Z,0.00
2018-11-13T02:46:16.428Z,0.00
2018-11-13T02:47:16.187Z,0.00
2018-11-13T02:48:16.216Z,0.00
2018-11-13T02:49:16.274Z,0.00
2018-11-13T02:50:16.305Z,0.00
2018-11-13T02:51:16.344Z,0.00
2018-11-13T02:52:16.388Z,0.00
2018-11-13T02:53:16.456Z,0.00
2018-11-13T02:54:16.483Z,0.00
2018-11-13T02:55:16.522Z,0.00
2018-11-13T02:56:16.561Z,0.00
2018-11-13T02:57:16.608Z,0.00
2018-11-13T02:58:16.678Z,0.00
2018-11-13T02:59:16.770Z,0.00
2018-11-13T03:00:16.741Z,0.00
2018-11-13T03:01:16.781Z,0.00
2018-11-13T03:02:16.827Z,0.00
2018-11-13T03:03:16.893Z,0.00
2018-11-13T03:04:16.915Z,0.00
2018-11-13T03:05:16.960Z,0.00
2018-11-13T03:06:17.058Z,0.00
2018-11-13T03:07:17.053Z,0.00
2018-11-13T03:08:17.117Z,0.00
2018-11-13T03:09:17.139Z,0.00
2018-11-13T03:10:17.180Z,0.00
2018-11-13T03:11:17.246Z,0.00
2018-11-13T03:12:17.269Z,0.00
2018-11-13T03:13:17.313Z,0.00
2018-11-13T03:14:17.359Z,0.00
2018-11-13T03:15:17.426Z,0.00
2018-11-13T03:16:17.447Z,0.00
2018-11-13T03:17:17.501Z,0.00
2018-11-13T03:18:17.535Z,0.00
2018-11-13T03:19:17.590Z,0.00
2018-11-13T03:20:17.648Z,0.00
2018-11-13T03:21:17.670Z,0.00
2018-11-13T03:22:17.816Z,0.00
2018-11-13T03:23:17.762Z,0.00
2018-11-13T03:24:17.803Z,0.00
2018-11-13T03:25:17.854Z,0.00
2018-11-13T03:26:17.894Z,0.00
2018-11-13T03:27:17.961Z,0.00
2018-11-13T03:28:17.987Z,0.00
2018-11-13T03:29:18.144Z,0.00
2018-11-13T03:30:18.102Z,0.00
2018-11-13T03:31:18.157Z,0.00
2018-11-13T03:32:18.162Z,0.00
2018-11-13T03:33:18.228Z,0.00
2018-11-13T03:34:18.252Z,0.00
2018-11-13T03:35:18.298Z,0.00
2018-11-13T03:36:18.436Z,0.00
2018-11-13T03:37:18.408Z,0.00
2018-11-13T03:38:18.449Z,0.00
2018-11-13T03:39:18.481Z,0.00
2018-11-13T03:40:18.529Z,0.00
2018-11-13T03:41:18.568Z,0.00
2018-11-13T03:42:18.638Z,0.00
2018-11-13T03:43:18.667Z,0.00
2018-11-13T03:44:18.727Z,0.00
2018-11-13T03:45:18.741Z,0.00
2018-11-13T03:46:18.790Z,0.00
2018-11-13T03:47:18.831Z,0.00
2018-11-13T03:48:18.899Z,0.00
2018-11-13T03:49:18.948Z,0.00
2018-11-13T03:50:18.966Z,0.00
2018-11-13T03:51:19.012Z,0.00
2018-11-13T03:52:19.060Z,0.00
2018-11-13T03:53:19.103Z,0.00
2018-11-13T03:54:19.172Z,0.00
2018-11-13T03:55:19.193Z,0.00
2018-11-13T03:56:19.233Z,0.00
2018-11-13T03:57:19.291Z,0.00
2018-11-13T03:58:19.326Z,0.00
2018-11-13T03:59:19.392Z,0.00
2018-11-13T04:00:19.435Z,0.00
2018-11-13T04:01:19.462Z,0.00
2018-11-13T04:02:19.504Z,0.00
2018-11-13T04:03:19.560Z,0.00
2018-11-13T04:04:19.601Z,0.00
2018-11-13T04:05:19.656Z,0.00
2018-11-13T04:06:19.719Z,0.00
2018-11-13T04:07:19.731Z,0.00
2018-11-13T04:08:19.785Z,0.00
2018-11-13T04:09:19.843Z,0.00
2018-11-13T04:10:19.862Z,0.00
2018-11-13T04:11:19.927Z,0.00
2018-11-13T04:12:19.953Z,0.00
2018-11-13T04:13:19.994Z,0.00
2018-11-13T04:14:20.043Z,0.00
2018-11-13T04:15:20.105Z,0.00
2018-11-13T04:16:20.161Z,0.00
2018-11-13T04:17:20.173Z,0.00
2018-11-13T04:18:20.238Z,0.00
2018-11-13T04:19:20.273Z,0.00
2018-11-13T04:20:20.337Z,0.00
2018-11-13T04:21:20.353Z,0.00
2018-11-13T04:22:20.400Z,0.00
2018-11-13T04:23:20.442Z,0.00
2018-11-13T04:24:20.490Z,0.00
2018-11-13T04:25:20.556Z,0.00
2018-11-13T04:26:20.576Z,0.00
2018-11-13T04:27:20.643Z,0.00
2018-11-13T04:28:20.665Z,0.00
2018-11-13T04:29:21.308Z,0.00
2018-11-13T04:30:20.772Z,0.00
2018-11-13T04:31:20.807Z,0.00
2018-11-13T04:32:20.878Z,0.00
2018-11-13T04:33:20.895Z,0.00
2018-11-13T04:34:20.942Z,0.00
2018-11-13T04:35:21.008Z,0.00
2018-11-13T04:36:21.018Z,0.00
2018-11-13T04:37:21.089Z,0.00
2018-11-13T04:38:21.144Z,0.00
2018-11-13T04:39:21.156Z,0.00
2018-11-13T04:40:21.200Z,0.00
2018-11-13T04:41:21.251Z,0.00
2018-11-13T04:42:21.315Z,0.00
2018-11-13T04:43:21.343Z,0.00
2018-11-13T04:44:21.384Z,0.00
2018-11-13T04:45:21.500Z,0.00
2018-11-13T04:46:21.468Z,0.00
2018-11-13T04:47:21.536Z,0.00
2018-11-13T04:48:21.556Z,0.00
2018-11-13T04:49:21.610Z,0.00
2018-11-13T04:50:21.646Z,0.00
2018-11-13T04:51:21.729Z,0.00
2018-11-13T04:52:21.807Z,0.00
2018-11-13T04:53:21.806Z,0.00
2018-11-13T04:54:21.825Z,0.00
2018-11-13T04:55:21.872Z,0.00
2018-11-13T04:56:21.958Z,0.00
2018-11-13T04:57:21.960Z,0.00
2018-11-13T04:58:22.013Z,0.00
2018-11-13T04:59:22.162Z,0.00
2018-11-13T05:00:22.091Z,0.00
2018-11-13T05:01:22.157Z,0.00
2018-11-13T05:02:22.181Z,0.00
2018-11-13T05:03:22.227Z,0.00
2018-11-13T05:04:22.275Z,0.00
2018-11-13T05:05:22.317Z,0.00
2018-11-13T05:06:22.391Z,0.00
2018-11-13T05:07:22.402Z,0.00
2018-11-13T05:08:22.475Z,0.00
2018-11-13T05:09:22.498Z,0.00
2018-11-13T05:10:22.538Z,0.00
2018-11-13T05:11:22.591Z,0.00
2018-11-13T05:12:22.639Z,0.00
2018-11-13T05:13:22.708Z,0.00
2018-11-13T05:14:22.716Z,0.00
2018-11-13T05:15:22.766Z,0.00
2018-11-13T05:16:22.813Z,0.00
2018-11-13T05:17:22.842Z,0.00
2018-11-13T05:18:22.914Z,0.00
2018-11-13T05:19:22.945Z,0.00
2018-11-13T05:20:22.988Z,0.00
2018-11-13T05:21:23.025Z,0.00
2018-11-13T05:22:23.156Z,0.00
2018-11-13T05:23:23.144Z,0.00
2018-11-13T05:24:23.159Z,0.00
2018-11-13T05:25:23.201Z,0.00
2018-11-13T05:26:23.246Z,0.00
2018-11-13T05:27:23.290Z,0.00
2018-11-13T05:28:23.365Z,0.00
2018-11-13T05:29:23.445Z,0.00
2018-11-13T05:30:23.426Z,0.00
2018-11-13T05:31:23.464Z,0.00
2018-11-13T05:32:23.518Z,0.00
2018-11-13T05:33:23.573Z,0.00
2018-11-13T05:34:23.594Z,0.00
2018-11-13T05:35:23.675Z,0.00
2018-11-13T05:36:23.698Z,0.00
2018-11-13T05:37:23.730Z,0.00
2018-11-13T05:38:23.771Z,0.00
2018-11-13T05:39:23.862Z,0.00
2018-11-13T05:40:23.878Z,0.00
2018-11-13T05:41:23.904Z,0.00
2018-11-13T05:42:23.949Z,0.00
2018-11-13T05:43:23.993Z,0.00
2018-11-13T05:44:24.038Z,0.00
2018-11-13T05:45:24.099Z,0.00
2018-11-13T05:46:24.124Z,0.00
2018-11-13T05:47:24.254Z,0.00
2018-11-13T05:48:24.213Z,0.00
2018-11-13T05:49:24.258Z,0.00
2018-11-13T05:50:24.321Z,4.00
2018-11-13T05:51:24.346Z,4.00
2018-11-13T05:52:24.389Z,4.00
2018-11-13T05:53:24.433Z,0.00
2018-11-13T05:54:24.504Z,4.00
2018-11-13T05:55:24.543Z,4.00
2018-11-13T05:56:24.567Z,4.00
2018-11-13T05:57:24.607Z,8.00
2018-11-13T05:58:24.661Z,4.00
2018-11-13T05:59:24.699Z,8.00
2018-11-13T06:00:24.773Z,8.00
2018-11-13T06:01:24.787Z,12.00
2018-11-13T06:02:24.830Z,16.00
2018-11-13T06:03:24.878Z,20.00
2018-11-13T06:04:24.930Z,20.00
2018-11-13T06:05:24.994Z,24.00
2018-11-13T06:06:25.007Z,28.00
2018-11-13T06:07:25.083Z,32.00
2018-11-13T06:08:25.112Z,36.00
2018-11-13T06:09:25.136Z,44.00
2018-11-13T06:10:25.189Z,52.00
2018-11-13T06:11:25.228Z,60.00
2018-11-13T06:12:25.300Z,72.00
2018-11-13T06:13:25.316Z,80.00
2018-11-13T06:14:25.358Z,96.00
2018-11-13T06:15:25.448Z,108.00
2018-11-13T06:16:25.454Z,116.00
2018-11-13T06:17:25.515Z,128.00
2018-11-13T06:18:25.681Z,144.00
2018-11-13T06:19:25.602Z,156.00
2018-11-13T06:20:25.629Z,172.00
2018-11-13T06:21:25.670Z,184.00
2018-11-13T06:22:25.710Z,196.00
2018-11-13T06:23:25.822Z,208.00
2018-11-13T06:24:25.799Z,228.00
2018-11-13T06:25:25.844Z,248.00
2018-11-13T06:26:25.915Z,272.00
2018-11-13T06:27:25.935Z,304.00
2018-11-13T06:28:25.981Z,336.00
2018-11-13T06:29:26.038Z,384.00
2018-11-13T06:30:26.073Z,448.00
2018-11-13T06:31:26.204Z,520.00
2018-11-13T06:32:26.156Z,584.00
2018-11-13T06:33:26.197Z,648.00
2018-11-13T06:34:26.272Z,736.00
2018-11-13T06:35:26.282Z,852.00
2018-11-13T06:36:26.326Z,940.00
2018-11-13T06:37:26.391Z,1024.00
2018-11-13T06:38:26.415Z,1088.00
2018-11-13T06:39:26.486Z,1152.00
2018-11-13T06:40:26.503Z,1232.00
2018-11-13T06:41:26.550Z,1272.00
2018-11-13T06:42:26.600Z,1328.00
2018-11-13T06:43:26.652Z,1400.00
2018-11-13T06:44:26.696Z,1496.00
2018-11-13T06:45:26.727Z,1620.00
2018-11-13T06:46:26.767Z,1792.00
2018-11-13T06:47:26.821Z,1952.00
2018-11-13T06:48:26.856Z,2116.00
2018-11-13T06:49:26.986Z,2260.00
2018-11-13T06:50:26.964Z,2376.00
2018-11-13T06:51:26.988Z,2444.00
2018-11-13T06:52:27.031Z,2524.00
2018-11-13T06:53:27.083Z,2644.00
2018-11-13T06:54:27.141Z,2772.00
2018-11-13T06:55:27.166Z,2908.00
2018-11-13T06:56:27.207Z,3048.00
2018-11-13T06:57:27.252Z,3212.00
2018-11-13T06:58:27.298Z,3396.00
2018-11-13T06:59:27.366Z,3528.00
2018-11-13T07:00:27.396Z,3692.00
2018-11-13T07:01:27.431Z,3804.00
2018-11-13T07:02:27.476Z,3876.00
2018-11-13T07:03:27.520Z,4040.00
2018-11-13T07:04:27.580Z,4188.00
2018-11-13T07:05:27.608Z,4256.00
2018-11-13T07:06:27.660Z,4300.00
2018-11-13T07:07:27.706Z,4336.00
2018-11-13T07:08:27.742Z,4348.00
2018-11-13T07:09:27.809Z,4256.00
2018-11-13T07:10:27.845Z,4184.00
2018-11-13T07:11:27.916Z,4300.00
2018-11-13T07:12:27.923Z,4212.00
2018-11-13T07:13:28.814Z,4192.00
2018-11-13T07:14:28.024Z,4056.00
2018-11-13T07:15:28.060Z,3912.00
2018-11-13T07:16:28.140Z,4052.00
2018-11-13T07:17:28.168Z,4096.00
2018-11-13T07:18:28.279Z,4324.00
2018-11-13T07:19:28.236Z,4632.00
2018-11-13T07:20:28.278Z,4860.00
2018-11-13T07:21:28.346Z,5020.00
2018-11-13T07:22:28.392Z,4872.00
2018-11-13T07:23:28.415Z,4712.00
2018-11-13T07:24:28.469Z,4632.00
2018-11-13T07:25:28.554Z,4480.00
2018-11-13T07:26:28.555Z,4304.00
2018-11-13T07:27:28.670Z,3944.00
2018-11-13T07:28:28.672Z,3588.00
2018-11-13T07:29:28.685Z,3332.00
2018-11-13T07:30:28.736Z,3160.00
2018-11-13T07:31:28.778Z,3080.00
2018-11-13T07:32:28.854Z,3004.00
2018-11-13T07:33:28.924Z,2896.00
2018-11-13T07:34:29.027Z,2864.00
2018-11-13T07:35:28.965Z,2940.00
2018-11-13T07:36:29.013Z,2996.00
2018-11-13T07:37:29.053Z,3248.00
2018-11-13T07:38:29.124Z,3876.00
2018-11-13T07:39:29.141Z,3804.00
2018-11-13T07:40:29.216Z,3340.00
2018-11-13T07:41:29.243Z,3288.00
2018-11-13T07:42:29.280Z,3232.00
2018-11-13T07:43:29.341Z,4100.00
2018-11-13T07:44:29.376Z,3076.00
2018-11-13T07:45:29.417Z,2988.00
2018-11-13T07:46:29.517Z,2952.00
2018-11-13T07:47:29.567Z,2748.00
2018-11-13T07:48:29.577Z,2512.00
2018-11-13T07:49:29.595Z,2352.00
2018-11-13T07:50:29.644Z,2296.00
2018-11-13T07:51:29.687Z,2288.00
2018-11-13T07:52:29.729Z,2536.00
2018-11-13T07:53:29.815Z,2760.00
2018-11-13T07:54:29.836Z,2924.00
2018-11-13T07:55:29.895Z,3124.00
2018-11-13T07:56:29.916Z,3212.00
2018-11-13T07:57:29.982Z,3448.00
2018-11-13T07:58:30.072Z,3556.00
2018-11-13T07:59:30.054Z,3512.00
2018-11-13T08:00:30.124Z,3448.00
2018-11-13T08:01:30.212Z,3304.00
2018-11-13T08:02:30.198Z,3272.00
2018-11-13T08:03:30.245Z,3320.00
2018-11-13T08:04:30.286Z,3092.00
2018-11-13T08:05:30.354Z,2956.00
2018-11-13T08:06:30.381Z,3236.00
2018-11-13T08:07:30.440Z,3396.00
2018-11-13T08:08:30.478Z,3344.00
2018-11-13T08:09:30.529Z,3208.00
2018-11-13T08:10:30.570Z,2836.00
2018-11-13T08:11:30.640Z,2748.00
2018-11-13T08:12:30.650Z,3000.00
2018-11-13T08:13:30.761Z,3272.00
2018-11-13T08:14:30.742Z,3460.00
2018-11-13T08:15:30.842Z,3592.00
2018-11-13T08:16:30.913Z,3504.00
2018-11-13T08:17:30.902Z,3432.00
2018-11-13T08:18:31.019Z,3608.00
2018-11-13T08:19:30.974Z,3700.00
2018-11-13T08:20:31.020Z,3700.00
2018-11-13T08:21:31.060Z,3776.00
2018-11-13T08:22:31.125Z,3884.00
2018-11-13T08:23:31.173Z,3852.00
2018-11-13T08:24:31.211Z,3832.00
2018-11-13T08:25:31.249Z,4152.00
2018-11-13T08:26:31.290Z,4776.00
2018-11-13T08:27:31.335Z,5280.00
2018-11-13T08:28:31.401Z,5540.00
2018-11-13T08:29:31.446Z,5704.00
2018-11-13T08:30:31.477Z,5736.00
2018-11-13T08:31:31.658Z,5648.00
2018-11-13T08:32:31.583Z,5512.00
2018-11-13T08:33:31.633Z,5548.00
2018-11-13T08:34:31.676Z,5708.00
2018-11-13T08:35:31.751Z,5920.00
2018-11-13T08:36:31.747Z,6156.00
2018-11-13T08:37:31.802Z,6072.00
2018-11-13T08:38:31.952Z,5736.00
2018-11-13T08:39:31.886Z,5472.00
2018-11-13T08:40:31.957Z,5352.00
2018-11-13T08:41:31.974Z,5216.00
2018-11-13T08:42:32.084Z,5056.00
2018-11-13T08:43:32.084Z,4828.00
2018-11-13T08:44:32.115Z,4684.00
2018-11-13T08:45:32.192Z,4764.00
2018-11-13T08:46:32.235Z,4796.00
2018-11-13T08:47:32.251Z,4868.00
2018-11-13T08:48:32.326Z,5028.00
2018-11-13T08:49:32.362Z,5400.00
2018-11-13T08:50:32.499Z,5720.00
2018-11-13T08:51:32.448Z,5972.00
2018-11-13T08:52:32.546Z,6076.00
2018-11-13T08:53:32.527Z,6236.00
2018-11-13T08:54:32.595Z,6632.00
2018-11-13T08:55:32.616Z,6852.00
2018-11-13T08:56:32.674Z,6328.00
2018-11-13T08:57:32.718Z,6280.00
2018-11-13T08:58:32.853Z,6016.00
2018-11-13T08:59:32.951Z,6024.00
2018-11-13T09:00:32.870Z,4768.00
2018-11-13T09:01:32.891Z,3320.00
2018-11-13T09:02:32.937Z,2560.00
2018-11-13T09:03:32.983Z,2956.00
2018-11-13T09:04:33.052Z,3668.00
2018-11-13T09:05:33.105Z,6048.00
2018-11-13T09:06:33.124Z,7576.00
2018-11-13T09:07:33.168Z,8584.00
2018-11-13T09:08:33.229Z,8356.00
2018-11-13T09:09:33.257Z,8940.00
2018-11-13T09:10:33.329Z,9500.00
2018-11-13T09:11:33.378Z,9332.00
2018-11-13T09:12:33.471Z,8500.00
2018-11-13T09:13:33.454Z,8332.00
2018-11-13T09:14:33.487Z,8952.00
2018-11-13T09:15:33.670Z,7812.00
2018-11-13T09:16:33.577Z,8664.00
2018-11-13T09:17:33.626Z,10488.00
2018-11-13T09:18:33.676Z,10996.00
2018-11-13T09:19:33.866Z,9048.00
2018-11-13T09:20:33.786Z,8864.00
2018-11-13T09:21:33.817Z,7964.00
2018-11-13T09:22:33.945Z,7216.00
2018-11-13T09:23:33.920Z,6684.00
2018-11-13T09:24:33.947Z,6712.00
2018-11-13T09:25:34.018Z,7280.00
2018-11-13T09:26:34.058Z,7976.00
2018-11-13T09:27:34.089Z,8772.00
2018-11-13T09:28:34.154Z,9560.00
2018-11-13T09:29:34.193Z,10100.00
2018-11-13T09:30:34.469Z,9620.00
2018-11-13T09:31:34.378Z,9112.00
2018-11-13T09:32:34.326Z,8392.00
2018-11-13T09:33:34.451Z,8048.00
2018-11-13T09:34:34.423Z,7656.00
2018-11-13T09:35:34.469Z,7344.00
2018-11-13T09:36:34.578Z,7076.00
2018-11-13T09:37:34.664Z,6944.00
2018-11-13T09:38:34.625Z,6408.00
2018-11-13T09:39:34.647Z,5464.00
2018-11-13T09:40:34.694Z,4856.00
2018-11-13T09:41:34.743Z,4456.00
2018-11-13T09:42:34.797Z,4060.00
2018-11-13T09:43:34.921Z,3776.00
2018-11-13T09:44:34.944Z,3744.00
2018-11-13T09:45:34.927Z,3400.00
2018-11-13T09:46:34.977Z,3388.00
2018-11-13T09:47:35.050Z,3028.00
2018-11-13T09:48:35.130Z,3016.00
2018-11-13T09:49:35.113Z,3480.00
2018-11-13T09:50:35.196Z,4084.00
2018-11-13T09:51:35.210Z,3792.00
2018-11-13T09:52:35.252Z,3520.00
2018-11-13T09:53:35.414Z,3360.00
2018-11-13T09:54:35.378Z,2904.00
2018-11-13T09:55:35.397Z,2628.00
2018-11-13T09:56:35.478Z,2432.00
2018-11-13T09:57:35.488Z,2292.00
2018-11-13T09:58:35.611Z,2236.00
2018-11-13T09:59:35.622Z,2356.00
2018-11-13T10:00:35.694Z,2484.00
2018-11-13T10:01:36.163Z,2472.00
2018-11-13T10:02:36.297Z,2388.00
2018-11-13T10:03:36.373Z,2424.00
2018-11-13T10:04:36.584Z,2484.00
2018-11-13T10:05:35.952Z,2480.00
2018-11-13T10:06:36.008Z,2376.00
2018-11-13T10:07:35.958Z,2216.00
2018-11-13T10:08:36.008Z,2032.00
2018-11-13T10:09:36.081Z,2000.00
2018-11-13T10:10:36.112Z,1956.00
2018-11-13T10:11:36.141Z,1896.00
2018-11-13T10:12:36.190Z,1760.00
2018-11-13T10:13:36.329Z,1704.00
2018-11-13T10:14:36.303Z,1652.00
2018-11-13T10:15:36.345Z,1648.00
2018-11-13T10:16:36.375Z,1712.00
2018-11-13T10:17:36.453Z,1800.00
2018-11-13T10:18:36.467Z,1876.00
2018-11-13T10:19:36.516Z,1952.00
2018-11-13T10:20:36.591Z,2048.00
2018-11-13T10:21:36.605Z,2164.00
2018-11-13T10:22:36.651Z,2348.00
2018-11-13T10:23:36.702Z,2504.00
2018-11-13T10:24:36.747Z,2656.00
2018-11-13T10:25:36.822Z,2820.00
2018-11-13T10:26:36.982Z,2808.00
2018-11-13T10:27:36.932Z,2724.00
2018-11-13T10:28:36.940Z,2780.00
2018-11-13T10:29:36.979Z,2832.00
2018-11-13T10:30:37.027Z,2964.00
2018-11-13T10:31:37.107Z,3096.00
2018-11-13T10:32:37.120Z,3204.00
2018-11-13T10:33:37.168Z,3248.00
2018-11-13T10:34:37.224Z,3168.00
2018-11-13T10:35:37.255Z,3108.00
2018-11-13T10:36:37.334Z,3204.00
2018-11-13T10:37:37.374Z,3336.00
2018-11-13T10:38:37.423Z,3260.00
2018-11-13T10:39:37.459Z,3140.00
2018-11-13T10:40:37.661Z,3204.00
2018-11-13T10:41:37.609Z,3412.00
2018-11-13T10:42:37.623Z,3596.00
2018-11-13T10:43:37.642Z,3632.00
2018-11-13T10:44:37.684Z,3540.00
2018-11-13T10:45:37.733Z,3376.00
2018-11-13T10:46:37.779Z,3224.00
2018-11-13T10:47:37.855Z,3124.00
2018-11-13T10:48:37.871Z,3088.00
2018-11-13T10:49:37.918Z,3084.00
2018-11-13T10:50:37.964Z,3064.00
2018-11-13T10:51:38.012Z,3016.00
2018-11-13T10:52:38.078Z,2976.00
2018-11-13T10:53:38.110Z,2956.00
2018-11-13T10:54:38.154Z,2916.00
2018-11-13T10:55:38.224Z,2912.00
2018-11-13T10:56:38.337Z,2824.00
2018-11-13T10:57:38.291Z,2640.00
2018-11-13T10:58:38.374Z,2516.00
2018-11-13T10:59:38.389Z,2524.00
2018-11-13T11:00:38.436Z,2624.00
2018-11-13T11:01:38.483Z,2672.00
2018-11-13T11:02:38.656Z,2696.00
2018-11-13T11:03:38.592Z,2720.00
2018-11-13T11:04:38.708Z,2728.00
2018-11-13T11:05:38.690Z,2736.00
2018-11-13T11:06:38.717Z,2716.00
2018-11-13T11:07:38.764Z,2672.00
2018-11-13T11:08:38.823Z,2632.00
2018-11-13T11:09:38.863Z,2584.00
2018-11-13T11:10:38.928Z,2596.00
2018-11-13T11:11:39.023Z,2764.00
2018-11-13T11:12:39.007Z,2996.00
2018-11-13T11:13:39.154Z,3148.00
2018-11-13T11:14:39.098Z,3112.00
2018-11-13T11:15:39.137Z,3028.00
2018-11-13T11:16:39.209Z,2984.00
2018-11-13T11:17:39.231Z,3076.00
2018-11-13T11:18:39.483Z,3140.00
2018-11-13T11:19:39.327Z,3088.00
2018-11-13T11:20:39.372Z,3060.00
2018-11-13T11:21:39.450Z,3020.00
2018-11-13T11:22:39.528Z,3088.00
2018-11-13T11:23:39.580Z,3508.00
2018-11-13T11:24:39.583Z,3868.00
2018-11-13T11:25:39.616Z,3756.00
2018-11-13T11:26:39.667Z,3828.00
2018-11-13T11:27:39.743Z,4408.00
2018-11-13T11:28:39.749Z,4752.00
2018-11-13T11:29:39.805Z,4544.00
2018-11-13T11:30:39.846Z,4052.00
2018-11-13T11:31:39.889Z,3756.00
2018-11-13T11:32:39.963Z,3548.00
2018-11-13T11:33:39.994Z,3328.00
2018-11-13T11:34:40.033Z,3104.00
2018-11-13T11:35:40.097Z,3020.00
2018-11-13T11:36:40.129Z,3188.00
2018-11-13T11:37:40.212Z,3456.00
2018-11-13T11:38:40.295Z,3548.00
2018-11-13T11:39:40.271Z,3544.00
2018-11-13T11:40:40.372Z,3892.00
2018-11-13T11:41:40.416Z,4480.00
2018-11-13T11:42:40.434Z,4716.00
2018-11-13T11:43:40.457Z,4600.00
2018-11-13T11:44:40.504Z,4228.00
2018-11-13T11:45:40.575Z,3912.00
2018-11-13T11:46:40.598Z,3792.00
2018-11-13T11:47:40.652Z,4132.00
2018-11-13T11:48:40.784Z,4636.00
2018-11-13T11:49:40.740Z,4900.00
2018-11-13T11:50:40.813Z,4724.00
2018-11-13T11:51:40.843Z,4260.00
2018-11-13T11:52:40.883Z,4004.00
2018-11-13T11:53:40.948Z,4244.00
2018-11-13T11:54:40.974Z,4764.00
2018-11-13T11:55:41.370Z,4904.00
2018-11-13T11:56:41.069Z,4564.00
2018-11-13T11:57:41.116Z,4432.00
2018-11-13T11:58:41.162Z,4848.00
2018-11-13T11:59:41.229Z,5332.00
2018-11-13T12:00:41.322Z,5560.00
2018-11-13T12:01:41.310Z,5492.00
2018-11-13T12:02:41.366Z,5568.00
2018-11-13T12:03:41.401Z,5440.00
2018-11-13T12:04:41.535Z,5108.00
2018-11-13T12:05:41.508Z,4748.00
2018-11-13T12:06:41.580Z,4560.00
2018-11-13T12:07:41.590Z,4480.00
2018-11-13T12:08:41.631Z,4628.00
2018-11-13T12:09:41.760Z,5092.00
2018-11-13T12:10:41.750Z,5424.00
2018-11-13T12:11:41.791Z,5544.00
2018-11-13T12:12:41.824Z,5604.00
2018-11-13T12:13:41.884Z,5288.00
2018-11-13T12:14:41.919Z,5112.00
2018-11-13T12:15:41.962Z,5044.00
2018-11-13T12:16:42.005Z,4900.00
2018-11-13T12:17:42.061Z,4488.00
2018-11-13T12:18:42.172Z,4524.00
2018-11-13T12:19:42.151Z,4944.00
2018-11-13T12:20:42.212Z,5216.00
2018-11-13T12:21:42.257Z,5200.00
2018-11-13T12:22:42.337Z,5068.00
2018-11-13T12:23:42.337Z,5128.00
2018-11-13T12:24:42.383Z,5276.00
2018-11-13T12:25:42.461Z,5456.00
2018-11-13T12:26:42.484Z,5628.00
2018-11-13T12:27:42.560Z,5724.00
2018-11-13T12:28:42.610Z,5660.00
2018-11-13T12:29:42.624Z,5900.00
2018-11-13T12:30:42.667Z,6540.00
2018-11-13T12:31:42.723Z,7012.00
2018-11-13T12:32:42.761Z,7120.00
2018-11-13T12:33:42.829Z,7028.00
2018-11-13T12:34:42.944Z,6840.00
2018-11-13T12:35:42.905Z,6708.00
2018-11-13T12:36:42.956Z,6804.00
2018-11-13T12:37:42.996Z,6756.00
2018-11-13T12:38:43.067Z,6296.00
2018-11-13T12:39:43.150Z,5808.00
2018-11-13T12:40:43.222Z,5784.00